createdAt,value
2017-11-04T00:00:16.893Z,111.00
2017-11-04T00:02:44.766Z,127.87
2017-11-04T00:05:12.607Z,114.90
2017-11-04T00:07:40.457Z,121.53
2017-11-04T00:10:08.306Z,116.67
2017-11-04T00:12:36.174Z,127.00
2017-11-04T00:15:03.997Z,123.50
2017-11-04T00:17:31.841Z,124.47
2017-11-04T00:19:59.676Z,127.70
2017-11-04T00:22:27.540Z,121.07
2017-11-04T00:24:55.406Z,121.60
2017-11-04T00:27:23.251Z,119.30
2017-11-04T00:29:51.098Z,126.17
2017-11-04T00:32:18.928Z,113.20
2017-11-04T00:34:46.797Z,112.07
2017-11-04T00:37:14.622Z,108.90
2017-11-04T00:39:42.470Z,123.77
2017-11-04T00:42:10.296Z,124.27
2017-11-04T00:44:38.158Z,115.47
2017-11-04T00:47:06.024Z,118.17
2017-11-04T00:49:33.840Z,112.87
2017-11-04T00:52:01.677Z,127.13
2017-11-04T00:54:29.517Z,113.50
2017-11-04T00:56:57.344Z,112.93
2017-11-04T00:59:25.193Z,112.67
2017-11-04T01:01:53.029Z,112.87
2017-11-04T01:04:23.203Z,98.57
2017-11-04T01:06:51.064Z,118.67
2017-11-04T01:09:18.915Z,108.40
2017-11-04T01:11:46.758Z,128.50
2017-11-04T01:14:14.621Z,112.83
2017-11-04T01:16:42.452Z,110.20
2017-11-04T01:19:10.285Z,127.63
2017-11-04T01:21:38.133Z,118.33
2017-11-04T01:24:05.973Z,111.00
2017-11-04T01:26:33.830Z,117.63
2017-11-04T01:29:01.655Z,129.77
2017-11-04T01:31:29.497Z,131.63
2017-11-04T01:33:57.360Z,130.10
2017-11-04T01:36:25.228Z,122.20
2017-11-04T01:38:53.090Z,123.10
2017-11-04T01:41:20.961Z,134.50
2017-11-04T01:43:48.808Z,120.73
2017-11-04T01:46:16.645Z,132.90
2017-11-04T01:48:44.470Z,126.73
2017-11-04T01:51:12.317Z,132.17
2017-11-04T01:53:40.152Z,121.03
2017-11-04T01:56:08.005Z,119.93
2017-11-04T01:58:35.872Z,143.50
2017-11-04T02:01:03.740Z,126.37
2017-11-04T02:03:31.595Z,133.87
2017-11-04T02:05:59.436Z,125.87
2017-11-04T02:08:27.292Z,126.87
2017-11-04T02:10:55.160Z,146.80
2017-11-04T02:13:23.033Z,132.53
2017-11-04T02:15:50.837Z,149.37
2017-11-04T02:18:18.703Z,151.43
2017-11-04T02:20:46.564Z,138.10
2017-11-04T02:23:14.441Z,127.97
2017-11-04T02:25:42.261Z,150.27
2017-11-04T02:28:10.149Z,132.43
2017-11-04T02:30:38.006Z,153.43
2017-11-04T02:33:05.901Z,128.40
2017-11-04T02:35:33.772Z,127.70
2017-11-04T02:38:01.635Z,143.80
2017-11-04T02:40:29.530Z,136.90
2017-11-04T02:42:57.402Z,141.00
2017-11-04T02:45:25.236Z,134.50
2017-11-04T02:47:53.089Z,141.57
2017-11-04T02:50:20.946Z,152.27
2017-11-04T02:52:48.838Z,132.10
2017-11-04T02:55:16.689Z,145.50
2017-11-04T02:57:44.556Z,150.43
2017-11-04T03:00:12.401Z,129.87
2017-11-04T03:02:40.269Z,129.53
2017-11-04T03:05:08.142Z,129.23
2017-11-04T03:07:36.021Z,136.53
2017-11-04T03:10:03.892Z,131.47
2017-11-04T03:12:31.781Z,125.43
2017-11-04T03:14:59.648Z,138.83
2017-11-04T03:17:27.483Z,139.50
2017-11-04T03:19:55.397Z,141.43
2017-11-04T03:22:23.223Z,134.73
2017-11-04T03:24:51.092Z,138.47
2017-11-04T03:27:18.938Z,146.27
2017-11-04T03:29:46.806Z,153.80
2017-11-04T03:32:14.673Z,144.87
2017-11-04T03:34:42.543Z,130.70
2017-11-04T03:37:10.397Z,154.87
2017-11-04T03:39:38.232Z,143.50
2017-11-04T03:42:06.052Z,132.67
2017-11-04T03:44:33.889Z,129.57
2017-11-04T03:47:01.737Z,148.50
2017-11-04T03:49:29.578Z,137.80
2017-11-04T03:51:57.410Z,139.73
2017-11-04T03:54:25.249Z,150.70
2017-11-04T03:56:53.093Z,171.23
2017-11-04T03:59:20.949Z,163.17
2017-11-04T04:01:48.790Z,151.70
2017-11-04T04:04:16.653Z,152.77
2017-11-04T04:06:44.489Z,150.60
2017-11-04T04:09:12.351Z,135.47
2017-11-04T04:11:40.212Z,145.90
2017-11-04T04:14:08.940Z,130.47
2017-11-04T04:16:36.818Z,140.73
2017-11-04T04:19:04.707Z,135.73
2017-11-04T04:21:32.533Z,116.20
2017-11-04T04:24:00.388Z,129.60
2017-11-04T04:26:28.240Z,149.73
2017-11-04T04:28:56.143Z,133.93
2017-11-04T04:31:23.965Z,140.03
2017-11-04T04:33:51.832Z,137.00
2017-11-04T04:36:19.738Z,133.90
2017-11-04T04:38:47.566Z,132.13
2017-11-04T04:41:15.396Z,131.23
2017-11-04T04:43:43.242Z,148.10
2017-11-04T04:46:11.106Z,152.63
2017-11-04T04:48:38.932Z,131.50
2017-11-04T04:51:06.776Z,135.00
2017-11-04T04:53:34.614Z,136.63
2017-11-04T04:56:02.447Z,138.23
2017-11-04T04:58:30.279Z,137.93
2017-11-04T05:00:58.133Z,146.07
2017-11-04T05:03:25.940Z,154.60
2017-11-04T05:05:53.779Z,150.50
2017-11-04T05:08:21.621Z,140.47
2017-11-04T05:10:49.478Z,141.47
2017-11-04T05:13:17.357Z,133.70
2017-11-04T05:15:45.201Z,128.40
2017-11-04T05:18:13.035Z,137.53
2017-11-04T05:20:40.882Z,135.23
2017-11-04T05:23:08.716Z,139.90
2017-11-04T05:25:36.526Z,137.70
2017-11-04T05:28:04.377Z,140.90
2017-11-04T05:30:32.239Z,144.57
2017-11-04T05:33:00.053Z,163.40
2017-11-04T05:35:27.909Z,137.13
2017-11-04T05:37:55.753Z,140.87
2017-11-04T05:40:23.578Z,146.93
2017-11-04T05:42:51.409Z,138.47
2017-11-04T05:45:19.248Z,147.53
2017-11-04T05:47:47.072Z,142.67
2017-11-04T05:50:14.941Z,157.30
2017-11-04T05:52:42.828Z,161.67
2017-11-04T05:55:10.691Z,142.20
2017-11-04T05:57:41.351Z,148.50
2017-11-04T06:00:09.218Z,138.33
2017-11-04T06:02:37.121Z,154.03
2017-11-04T06:05:04.997Z,145.33
2017-11-04T06:07:32.854Z,137.90
2017-11-04T06:10:00.731Z,149.10
2017-11-04T06:12:28.593Z,141.67
2017-11-04T06:14:56.432Z,160.80
2017-11-04T06:17:24.294Z,141.20
2017-11-04T06:19:52.160Z,157.33
2017-11-04T06:22:19.999Z,151.97
2017-11-04T06:24:47.853Z,158.60
2017-11-04T06:27:15.686Z,145.40
2017-11-04T06:29:43.528Z,155.23
2017-11-04T06:32:11.359Z,155.80
2017-11-04T06:34:39.215Z,155.20
2017-11-04T06:37:07.070Z,138.83
2017-11-04T06:39:34.916Z,147.40
2017-11-04T06:42:02.785Z,143.00
2017-11-04T06:44:30.647Z,136.30
2017-11-04T06:46:58.468Z,162.60
2017-11-04T06:49:26.321Z,131.77
2017-11-04T06:51:54.127Z,145.00
2017-11-04T06:54:21.948Z,135.43
2017-11-04T06:56:49.795Z,143.93
2017-11-04T06:59:17.646Z,142.60
2017-11-04T07:01:45.496Z,136.40
2017-11-04T07:04:13.339Z,115.27
2017-11-04T07:06:41.174Z,128.27
2017-11-04T07:09:09.006Z,143.20
2017-11-04T07:11:36.872Z,125.87
2017-11-04T07:14:04.796Z,144.70
2017-11-04T07:16:32.625Z,120.80
2017-11-04T07:19:00.474Z,119.80
2017-11-04T07:21:28.328Z,128.87
2017-11-04T07:23:56.164Z,133.23
2017-11-04T07:26:23.994Z,120.00
2017-11-04T07:28:51.818Z,120.20
2017-11-04T07:31:19.661Z,132.27
2017-11-04T07:33:49.500Z,120.53
2017-11-04T07:36:17.401Z,131.47
2017-11-04T07:38:45.269Z,126.43
2017-11-04T07:41:13.133Z,129.90
2017-11-04T07:43:40.985Z,126.90
2017-11-04T07:46:08.822Z,125.67
2017-11-04T07:48:36.689Z,116.33
2017-11-04T07:51:04.572Z,124.10
2017-11-04T07:53:32.406Z,126.30
2017-11-04T07:56:00.246Z,140.47
2017-11-04T07:58:28.092Z,124.67
2017-11-04T08:00:57.408Z,125.70
2017-11-04T08:03:25.254Z,117.60
2017-11-04T08:05:53.134Z,114.77
2017-11-04T08:08:20.943Z,117.13
2017-11-04T08:10:48.779Z,112.70
2017-11-04T08:13:16.624Z,122.17
2017-11-04T08:15:44.445Z,120.30
2017-11-04T08:18:12.314Z,126.43
2017-11-04T08:20:40.177Z,116.63
2017-11-04T08:23:08.652Z,127.47
2017-11-04T08:25:36.470Z,124.87
2017-11-04T08:28:04.293Z,115.83
2017-11-04T08:30:32.102Z,114.83
2017-11-04T08:32:59.934Z,122.07
2017-11-04T08:35:27.791Z,111.53
2017-11-04T08:37:55.603Z,112.77
2017-11-04T08:40:23.425Z,126.10
2017-11-04T08:42:51.267Z,114.20
2017-11-04T08:45:19.101Z,122.03
2017-11-04T08:47:46.943Z,118.40
2017-11-04T08:50:14.809Z,107.23
2017-11-04T08:52:42.664Z,99.90
2017-11-04T08:55:10.504Z,101.43
2017-11-04T08:57:38.336Z,96.43
2017-11-04T09:00:06.176Z,100.63
2017-11-04T09:02:34.100Z,108.27
2017-11-04T09:05:01.953Z,108.53
2017-11-04T09:07:29.776Z,105.27
2017-11-04T09:09:57.605Z,105.90
2017-11-04T09:12:25.438Z,99.03
2017-11-04T09:14:53.304Z,111.83
2017-11-04T09:17:21.158Z,112.53
2017-11-04T09:19:49.012Z,99.17
2017-11-04T09:22:16.878Z,103.43
2017-11-04T09:24:44.791Z,103.30
2017-11-04T09:27:12.649Z,90.13
2017-11-04T09:29:40.512Z,93.17
2017-11-04T09:32:08.362Z,97.03
2017-11-04T09:34:36.269Z,97.57
2017-11-04T09:37:04.092Z,93.90
2017-11-04T09:39:31.939Z,97.13
2017-11-04T09:42:02.456Z,106.33
2017-11-04T09:44:30.337Z,88.07
2017-11-04T09:46:58.173Z,86.20
2017-11-04T09:49:26.045Z,93.90
2017-11-04T09:51:53.906Z,84.40
2017-11-04T09:54:21.758Z,81.93
2017-11-04T09:56:49.616Z,92.07
2017-11-04T09:59:17.502Z,88.70
2017-11-04T10:01:45.347Z,88.30
2017-11-04T10:04:13.196Z,95.17
2017-11-04T10:06:41.033Z,81.53
2017-11-04T10:09:08.889Z,89.40
2017-11-04T10:11:36.725Z,86.77
2017-11-04T10:14:04.574Z,80.80
2017-11-04T10:16:32.458Z,77.43
2017-11-04T10:19:00.302Z,85.13
2017-11-04T10:21:28.132Z,73.37
2017-11-04T10:23:55.957Z,81.50
2017-11-04T10:26:23.789Z,79.43
2017-11-04T10:28:51.635Z,63.63
2017-11-04T10:31:19.476Z,79.10
2017-11-04T10:33:47.324Z,62.47
2017-11-04T10:36:15.186Z,63.23
2017-11-04T10:38:43.029Z,64.70
2017-11-04T10:41:10.873Z,65.50
2017-11-04T10:43:38.723Z,66.53
2017-11-04T10:46:06.573Z,70.20
2017-11-04T10:48:34.385Z,70.67
2017-11-04T10:51:02.225Z,61.47
2017-11-04T10:53:30.068Z,76.23
2017-11-04T10:55:57.890Z,65.03
2017-11-04T10:58:25.721Z,72.00
2017-11-04T11:00:53.589Z,65.80
2017-11-04T11:03:21.420Z,65.70
2017-11-04T11:05:49.244Z,71.60
2017-11-04T11:08:17.084Z,75.37
2017-11-04T11:10:44.917Z,71.93
2017-11-04T11:13:12.757Z,66.20
2017-11-04T11:15:40.592Z,81.37
2017-11-04T11:18:08.433Z,64.33
2017-11-04T11:20:36.248Z,67.93
2017-11-04T11:23:04.119Z,72.40
2017-11-04T11:25:31.944Z,61.30
2017-11-04T11:27:59.775Z,62.27
2017-11-04T11:30:27.581Z,65.87
2017-11-04T11:32:55.425Z,56.13
2017-11-04T11:35:23.283Z,56.27
2017-11-04T11:37:51.109Z,63.23
2017-11-04T11:40:18.939Z,51.07
2017-11-04T11:42:46.808Z,57.00
2017-11-04T11:45:14.633Z,64.87
2017-11-04T11:47:42.505Z,59.07
2017-11-04T11:50:10.340Z,60.43
2017-11-04T11:52:38.169Z,58.13
2017-11-04T11:55:05.981Z,49.30
2017-11-04T11:57:33.813Z,56.93
2017-11-04T12:00:01.650Z,57.90
2017-11-04T12:02:29.518Z,59.20
2017-11-04T12:04:57.345Z,58.67
2017-11-04T12:07:25.211Z,58.90
2017-11-04T12:09:53.039Z,47.90
2017-11-04T12:12:20.873Z,45.40
2017-11-04T12:14:48.725Z,49.33
2017-11-04T12:17:16.549Z,46.43
2017-11-04T12:19:44.406Z,43.93
2017-11-04T12:22:12.281Z,47.80
2017-11-04T12:24:40.129Z,49.50
2017-11-04T12:27:08.011Z,53.73
2017-11-04T12:29:35.857Z,52.50
2017-11-04T12:32:03.705Z,59.07
2017-11-04T12:34:31.552Z,56.70
2017-11-04T12:36:59.375Z,54.03
2017-11-04T12:39:27.235Z,57.60
2017-11-04T12:41:55.072Z,61.63
2017-11-04T12:44:22.908Z,56.30
2017-11-04T12:46:50.749Z,58.90
2017-11-04T12:49:18.601Z,59.20
2017-11-04T12:51:46.427Z,60.47
2017-11-04T12:54:14.294Z,56.83
2017-11-04T12:56:42.117Z,50.33
2017-11-04T12:59:09.961Z,58.70
2017-11-04T13:01:37.784Z,64.23
2017-11-04T13:04:05.613Z,62.77
2017-11-04T13:06:33.415Z,69.30
2017-11-04T13:09:01.283Z,69.03
2017-11-04T13:11:29.128Z,60.63
2017-11-04T13:13:56.949Z,65.50
2017-11-04T13:16:24.786Z,69.73
2017-11-04T13:18:52.619Z,70.97
2017-11-04T13:21:21.529Z,66.63
2017-11-04T13:23:49.410Z,66.53
2017-11-04T13:26:17.245Z,70.30
2017-11-04T13:28:45.085Z,68.77
2017-11-04T13:31:12.905Z,65.83
2017-11-04T13:33:40.732Z,79.37
2017-11-04T13:36:08.545Z,74.77
2017-11-04T13:38:36.374Z,70.00
2017-11-04T13:41:04.196Z,74.63
2017-11-04T13:43:32.029Z,72.80
2017-11-04T13:45:59.880Z,82.97
2017-11-04T13:48:27.689Z,72.50
2017-11-04T13:50:55.503Z,84.80
2017-11-04T13:53:23.325Z,73.13
2017-11-04T13:55:51.128Z,76.00
2017-11-04T13:58:18.949Z,73.50
2017-11-04T14:00:46.762Z,77.50
2017-11-04T14:03:14.580Z,70.30
2017-11-04T14:05:42.397Z,76.97
2017-11-04T14:08:10.225Z,80.13
2017-11-04T14:10:38.161Z,79.07
2017-11-04T14:13:05.999Z,81.03
2017-11-04T14:15:33.805Z,82.43
2017-11-04T14:18:01.618Z,80.80
2017-11-04T14:20:29.456Z,83.60
2017-11-04T14:22:57.362Z,81.40
2017-11-04T14:25:25.223Z,76.33
2017-11-04T14:27:53.038Z,82.30
2017-11-04T14:30:20.848Z,83.13
2017-11-04T14:32:48.716Z,72.50
2017-11-04T14:35:16.548Z,77.70
2017-11-04T14:37:44.381Z,82.90
2017-11-04T14:40:12.211Z,75.17
2017-11-04T14:42:40.037Z,86.43
2017-11-04T14:45:07.865Z,88.57
2017-11-04T14:47:35.672Z,93.83
2017-11-04T14:50:03.521Z,86.10
2017-11-04T14:52:31.369Z,71.90
2017-11-04T14:54:59.216Z,70.33
2017-11-04T14:57:27.181Z,73.50
2017-11-04T14:59:55.011Z,74.30
2017-11-04T15:02:22.837Z,82.40
2017-11-04T15:04:50.660Z,74.93
2017-11-04T15:07:18.470Z,59.70
2017-11-04T15:09:46.300Z,69.90
2017-11-04T15:12:14.156Z,71.60
2017-11-04T15:14:41.976Z,72.40
2017-11-04T15:17:09.796Z,87.23
2017-11-04T15:19:37.609Z,77.63
2017-11-04T15:22:05.424Z,76.10
2017-11-04T15:24:33.241Z,76.60
2017-11-04T15:27:01.062Z,89.03
2017-11-04T15:29:28.867Z,75.37
2017-11-04T15:31:56.696Z,71.20
2017-11-04T15:34:24.537Z,73.07
2017-11-04T15:36:52.358Z,75.30
2017-11-04T15:39:20.180Z,77.67
2017-11-04T15:41:48.042Z,84.90
2017-11-04T15:44:15.869Z,78.47
2017-11-04T15:46:43.695Z,81.20
2017-11-04T15:49:11.590Z,82.43
2017-11-04T15:51:39.425Z,85.63
2017-11-04T15:54:07.285Z,76.50
2017-11-04T15:56:35.138Z,83.03
2017-11-04T15:59:02.980Z,84.93
2017-11-04T16:01:30.840Z,81.27
2017-11-04T16:03:58.688Z,85.47
2017-11-04T16:06:26.522Z,84.90
2017-11-04T16:08:54.341Z,86.53
2017-11-04T16:11:22.180Z,86.90
2017-11-04T16:13:50.013Z,87.13
2017-11-04T16:16:17.842Z,85.27
2017-11-04T16:18:45.675Z,96.53
2017-11-04T16:21:13.488Z,94.83
2017-11-04T16:23:41.281Z,98.83
2017-11-04T16:26:09.100Z,97.07
2017-11-04T16:28:36.934Z,89.40
2017-11-04T16:31:04.796Z,90.70
2017-11-04T16:33:32.636Z,79.53
2017-11-04T16:36:00.457Z,89.00
2017-11-04T16:38:28.274Z,101.03
2017-11-04T16:40:56.128Z,89.07
2017-11-04T16:43:23.961Z,86.57
2017-11-04T16:45:51.777Z,86.80
2017-11-04T16:48:19.636Z,88.63
2017-11-04T16:50:47.445Z,87.23
2017-11-04T16:53:16.158Z,95.23
2017-11-04T16:55:43.998Z,92.07
2017-11-04T16:58:11.840Z,90.20
2017-11-04T17:00:39.721Z,92.53
2017-11-04T17:03:07.560Z,95.10
2017-11-04T17:05:35.409Z,107.87
2017-11-04T17:08:03.231Z,97.10
2017-11-04T17:10:31.057Z,87.13
2017-11-04T17:12:58.900Z,91.83
2017-11-04T17:15:26.797Z,84.60
2017-11-04T17:17:54.635Z,88.13
2017-11-04T17:20:22.492Z,98.13
2017-11-04T17:22:50.335Z,92.00
2017-11-04T17:25:18.180Z,82.00
2017-11-04T17:27:46.048Z,94.87
2017-11-04T17:30:13.884Z,91.40
2017-11-04T17:32:41.724Z,92.50
2017-11-04T17:35:09.578Z,100.67
2017-11-04T17:37:37.425Z,85.40
2017-11-04T17:40:05.268Z,82.17
2017-11-04T17:42:33.089Z,100.53
2017-11-04T17:45:00.944Z,96.60
2017-11-04T17:47:28.773Z,102.17
2017-11-04T17:49:56.605Z,100.93
2017-11-04T17:52:24.417Z,89.93
2017-11-04T17:54:52.225Z,98.27
2017-11-04T17:57:20.066Z,91.13
2017-11-04T17:59:47.916Z,89.50
2017-11-04T18:02:15.736Z,97.73
2017-11-04T18:04:43.573Z,97.23
2017-11-04T18:07:11.436Z,90.43
2017-11-04T18:09:39.276Z,92.80
2017-11-04T18:12:07.093Z,95.63
2017-11-04T18:14:34.936Z,90.30
2017-11-04T18:17:02.763Z,93.57
2017-11-04T18:19:30.634Z,84.73
2017-11-04T18:21:58.445Z,94.30
2017-11-04T18:24:26.286Z,85.13
2017-11-04T18:26:54.149Z,81.67
2017-11-04T18:29:22.509Z,89.40
2017-11-04T18:31:50.349Z,83.77
2017-11-04T18:34:18.184Z,88.93
2017-11-04T18:36:46.023Z,87.10
2017-11-04T18:39:13.848Z,89.73
2017-11-04T18:41:41.716Z,84.97
2017-11-04T18:44:09.573Z,87.70
2017-11-04T18:46:37.420Z,82.90
2017-11-04T18:49:05.256Z,93.50
2017-11-04T18:51:33.114Z,100.13
2017-11-04T18:54:00.933Z,87.93
2017-11-04T18:56:28.769Z,84.83
2017-11-04T18:58:56.615Z,88.33
2017-11-04T19:01:24.440Z,84.97
2017-11-04T19:03:52.265Z,94.80
2017-11-04T19:06:20.121Z,81.63
2017-11-04T19:08:47.955Z,77.00
2017-11-04T19:11:15.780Z,76.77
2017-11-04T19:13:43.638Z,94.73
2017-11-04T19:16:11.458Z,94.00
2017-11-04T19:18:39.305Z,96.47
2017-11-04T19:21:07.276Z,76.17
2017-11-04T19:23:35.121Z,87.90
2017-11-04T19:26:02.949Z,78.27
2017-11-04T19:28:30.797Z,106.67
2017-11-04T19:30:58.694Z,89.57
2017-11-04T19:33:26.555Z,85.60
2017-11-04T19:35:54.404Z,84.30
2017-11-04T19:38:22.317Z,86.20
2017-11-04T19:40:50.211Z,86.93
2017-11-04T19:43:18.065Z,77.33
2017-11-04T19:45:45.911Z,79.23
2017-11-04T19:48:13.797Z,72.67
2017-11-04T19:50:41.733Z,88.10
2017-11-04T19:53:09.616Z,82.90
2017-11-04T19:55:37.448Z,74.73
2017-11-04T19:58:05.284Z,77.07
2017-11-04T20:00:33.133Z,73.93
2017-11-04T20:03:00.989Z,81.57
2017-11-04T20:05:28.909Z,80.80
2017-11-04T20:07:56.802Z,73.80
2017-11-04T20:10:24.669Z,80.50
2017-11-04T20:12:52.509Z,76.17
2017-11-04T20:15:20.385Z,71.03
2017-11-04T20:17:48.234Z,68.53
2017-11-04T20:20:16.078Z,77.23
2017-11-04T20:22:43.922Z,63.30
2017-11-04T20:25:11.772Z,68.90
2017-11-04T20:27:39.629Z,58.70
2017-11-04T20:30:07.496Z,65.10
2017-11-04T20:32:35.353Z,63.00
2017-11-04T20:35:03.236Z,58.67
2017-11-04T20:37:31.053Z,59.90
2017-11-04T20:39:58.882Z,60.97
2017-11-04T20:42:26.695Z,54.70
2017-11-04T20:44:54.524Z,61.03
2017-11-04T20:47:22.342Z,58.40
2017-11-04T20:49:50.179Z,62.00
2017-11-04T20:52:18.010Z,55.33
2017-11-04T20:54:45.841Z,57.30
2017-11-04T20:57:13.689Z,50.57
2017-11-04T20:59:41.514Z,52.07
2017-11-04T21:02:09.339Z,47.07
2017-11-04T21:04:37.175Z,48.67
2017-11-04T21:07:05.005Z,50.27
2017-11-04T21:09:32.807Z,49.93
2017-11-04T21:12:00.634Z,48.17
2017-11-04T21:14:28.501Z,44.43
2017-11-04T21:16:56.368Z,47.43
2017-11-04T21:19:24.185Z,44.93
2017-11-04T21:21:52.038Z,46.93
2017-11-04T21:24:19.864Z,46.13
2017-11-04T21:26:47.684Z,74.83
2017-11-04T21:29:15.492Z,38.60
2017-11-04T21:31:43.324Z,46.73
2017-11-04T21:34:11.144Z,44.10
2017-11-04T21:36:38.987Z,51.17
2017-11-04T21:39:06.808Z,46.07
2017-11-04T21:41:34.658Z,46.87
2017-11-04T21:44:02.479Z,43.33
2017-11-04T21:46:30.341Z,43.30
2017-11-04T21:48:58.189Z,41.77
2017-11-04T21:51:26.020Z,42.13
2017-11-04T21:53:53.856Z,43.13
2017-11-04T21:56:21.724Z,35.60
2017-11-04T21:58:49.549Z,41.73
2017-11-04T22:01:17.372Z,38.33
2017-11-04T22:03:45.235Z,43.47
2017-11-04T22:06:13.102Z,39.13
2017-11-04T22:08:40.936Z,44.17
2017-11-04T22:11:08.789Z,35.67
2017-11-04T22:13:36.618Z,38.53
2017-11-04T22:16:04.430Z,42.60
2017-11-04T22:18:32.278Z,35.43
2017-11-04T22:21:00.106Z,44.60
2017-11-04T22:23:27.933Z,48.20
2017-11-04T22:25:55.777Z,40.40
2017-11-04T22:28:23.609Z,40.60
2017-11-04T22:30:51.416Z,41.67
2017-11-04T22:33:19.238Z,48.33
2017-11-04T22:35:47.064Z,36.60
2017-11-04T22:38:14.892Z,40.70
2017-11-04T22:40:42.694Z,40.13
2017-11-04T22:43:10.526Z,35.10
2017-11-04T22:45:38.366Z,41.23
2017-11-04T22:48:06.189Z,36.10
2017-11-04T22:50:34.005Z,39.10
2017-11-04T22:53:01.826Z,39.57
2017-11-04T22:55:29.641Z,38.70
2017-11-04T22:57:57.492Z,43.37
2017-11-04T23:00:25.308Z,40.23
2017-11-04T23:02:53.113Z,42.83
2017-11-04T23:05:20.964Z,42.63
2017-11-04T23:07:48.785Z,45.23
2017-11-04T23:10:16.637Z,42.50
2017-11-04T23:12:44.449Z,41.20
2017-11-04T23:15:12.284Z,43.00
2017-11-04T23:17:40.109Z,46.13
2017-11-04T23:20:07.939Z,38.50
2017-11-04T23:22:35.760Z,39.83
2017-11-04T23:25:03.597Z,40.77
2017-11-04T23:27:31.417Z,42.87
2017-11-04T23:29:59.244Z,38.10
2017-11-04T23:32:27.096Z,35.33
2017-11-04T23:34:54.940Z,40.40
2017-11-04T23:37:22.781Z,43.47
2017-11-04T23:39:50.633Z,44.20
2017-11-04T23:42:18.463Z,38.60
2017-11-04T23:44:46.323Z,41.20
2017-11-04T23:47:14.150Z,47.80
2017-11-04T23:49:42.004Z,44.90
2017-11-04T23:52:09.830Z,41.67
2017-11-04T23:54:37.676Z,43.13
2017-11-04T23:57:05.504Z,42.07
2017-11-04T23:59:33.371Z,42.87
